createdAt,value
2023-03-03T00:01:33.066Z,17.31
2023-03-03T00:04:01.235Z,16.06
2023-03-03T00:06:30.686Z,16.46
2023-03-03T00:08:58.752Z,16.70
2023-03-03T00:11:26.871Z,16.69
2023-03-03T00:13:57.599Z,16.34
2023-03-03T00:16:30.017Z,15.44
2023-03-03T00:18:58.230Z,15.13
2023-03-03T00:21:26.737Z,15.19
2023-03-03T00:23:57.972Z,15.28
2023-03-03T00:26:36.664Z,15.39
2023-03-03T00:29:38.050Z,15.51
2023-03-03T00:32:12.524Z,15.04
2023-03-03T00:34:41.989Z,15.21
2023-03-03T00:37:30.305Z,15.60
2023-03-03T00:40:22.065Z,14.86
2023-03-03T00:42:53.809Z,14.44
2023-03-03T00:45:39.090Z,14.57
2023-03-03T00:48:28.143Z,14.69
2023-03-03T00:50:57.659Z,14.54
2023-03-03T00:53:27.486Z,14.90
2023-03-03T00:55:55.925Z,14.76
2023-03-03T00:58:24.168Z,14.90
2023-03-03T01:00:53.597Z,15.47
2023-03-03T01:03:25.311Z,15.40
2023-03-03T01:05:53.626Z,15.05
2023-03-03T01:08:22.375Z,15.73
2023-03-03T01:10:57.972Z,14.85
2023-03-03T01:13:28.303Z,15.11
2023-03-03T01:15:56.523Z,14.84
2023-03-03T01:18:24.642Z,14.50
2023-03-03T01:20:52.778Z,14.75
2023-03-03T01:23:20.847Z,14.95
2023-03-03T01:25:49.016Z,14.49
2023-03-03T01:28:18.180Z,14.59
2023-03-03T01:30:46.697Z,14.63
2023-03-03T01:33:14.934Z,14.24
2023-03-03T01:35:47.577Z,14.10
2023-03-03T01:38:16.189Z,13.61
2023-03-03T01:40:55.302Z,13.52
2023-03-03T01:43:23.392Z,13.71
2023-03-03T01:45:52.029Z,13.63
2023-03-03T01:48:37.050Z,13.66
2023-03-03T01:51:17.555Z,12.44
2023-03-03T01:53:48.484Z,12.73
2023-03-03T01:56:16.977Z,13.31
2023-03-03T01:58:51.511Z,12.93
2023-03-03T02:01:22.237Z,12.86
2023-03-03T02:03:50.388Z,13.10
2023-03-03T02:06:20.463Z,12.56
2023-03-03T02:08:54.441Z,12.40
2023-03-03T02:11:22.607Z,12.40
2023-03-03T02:13:51.460Z,12.36
2023-03-03T02:16:19.632Z,11.79
2023-03-03T02:18:47.836Z,11.85
2023-03-03T02:21:22.008Z,11.91
2023-03-03T02:23:50.273Z,12.36
2023-03-03T02:26:22.876Z,12.13
2023-03-03T02:28:54.952Z,11.71
2023-03-03T02:31:24.751Z,12.13
2023-03-03T02:33:53.234Z,12.05
2023-03-03T02:36:26.826Z,12.27
2023-03-03T02:39:14.916Z,12.36
2023-03-03T02:41:56.037Z,12.19
2023-03-03T02:44:27.032Z,11.92
2023-03-03T02:46:55.410Z,12.65
2023-03-03T02:49:26.039Z,12.21
2023-03-03T02:51:54.324Z,12.34
2023-03-03T02:54:23.701Z,12.52
2023-03-03T02:56:52.815Z,12.49
2023-03-03T02:59:22.049Z,12.71
2023-03-03T03:01:51.902Z,12.37
2023-03-03T03:04:25.029Z,12.70
2023-03-03T03:06:54.454Z,13.55
2023-03-03T03:09:23.621Z,13.30
2023-03-03T03:11:52.285Z,13.16
2023-03-03T03:14:24.101Z,13.40
2023-03-03T03:16:52.825Z,12.69
2023-03-03T03:19:21.471Z,12.70
2023-03-03T03:21:49.677Z,12.70
2023-03-03T03:24:18.415Z,12.41
2023-03-03T03:26:51.008Z,12.46
2023-03-03T03:29:19.189Z,12.37
2023-03-03T03:31:47.256Z,12.29
2023-03-03T03:34:15.494Z,12.75
2023-03-03T03:36:46.663Z,11.92
2023-03-03T03:39:15.166Z,12.41
2023-03-03T03:41:45.718Z,12.23
2023-03-03T03:44:13.893Z,12.63
2023-03-03T03:46:41.995Z,12.95
2023-03-03T03:49:11.288Z,12.56
2023-03-03T03:51:41.515Z,12.34
2023-03-03T03:54:10.695Z,12.43
2023-03-03T03:56:39.134Z,12.41
2023-03-03T03:59:07.886Z,12.35
2023-03-03T04:01:36.452Z,12.93
2023-03-03T04:04:05.240Z,12.38
2023-03-03T04:06:33.568Z,12.47
2023-03-03T04:09:02.220Z,12.65
2023-03-03T04:11:30.951Z,11.77
2023-03-03T04:13:59.047Z,12.30
2023-03-03T04:16:27.710Z,12.78
2023-03-03T04:18:56.066Z,13.25
2023-03-03T04:21:24.346Z,13.34
2023-03-03T04:23:53.493Z,13.36
2023-03-03T04:26:21.869Z,14.17
2023-03-03T04:28:50.254Z,14.40
2023-03-03T04:31:20.699Z,13.95
2023-03-03T04:33:49.492Z,13.78
2023-03-03T04:36:18.328Z,13.87
2023-03-03T04:38:46.624Z,13.91
2023-03-03T04:41:15.363Z,13.81
2023-03-03T04:43:43.869Z,13.95
2023-03-03T04:46:13.460Z,13.80
2023-03-03T04:48:41.624Z,13.88
2023-03-03T04:51:10.632Z,13.16
2023-03-03T04:53:38.978Z,13.50
2023-03-03T04:56:08.095Z,13.45
2023-03-03T04:58:37.260Z,13.77
2023-03-03T05:01:05.642Z,13.20
2023-03-03T05:03:34.085Z,14.17
2023-03-03T05:06:02.262Z,14.00
2023-03-03T05:08:30.337Z,13.83
2023-03-03T05:10:59.915Z,13.93
2023-03-03T05:13:27.954Z,13.27
2023-03-03T05:15:56.448Z,13.26
2023-03-03T05:18:24.794Z,13.78
2023-03-03T05:20:52.999Z,13.41
2023-03-03T05:23:22.040Z,14.01
2023-03-03T05:25:50.389Z,14.74
2023-03-03T05:28:18.509Z,14.73
2023-03-03T05:30:46.613Z,14.42
2023-03-03T05:33:15.404Z,14.49
2023-03-03T05:35:43.699Z,14.08
2023-03-03T05:38:11.738Z,14.18
2023-03-03T05:40:40.467Z,14.94
2023-03-03T05:43:08.551Z,15.14
2023-03-03T05:45:36.534Z,14.51
2023-03-03T05:48:05.125Z,14.85
2023-03-03T05:50:33.341Z,14.54
2023-03-03T05:53:01.452Z,14.95
2023-03-03T05:55:29.538Z,15.20
2023-03-03T05:57:57.682Z,14.89
2023-03-03T06:00:26.023Z,15.14
2023-03-03T06:02:54.197Z,16.11
2023-03-03T06:05:22.490Z,15.20
2023-03-03T06:07:50.517Z,15.16
2023-03-03T06:10:18.693Z,15.15
2023-03-03T06:12:47.726Z,15.47
2023-03-03T06:15:15.886Z,15.25
2023-03-03T06:17:44.179Z,15.67
2023-03-03T06:20:12.581Z,15.97
2023-03-03T06:22:40.706Z,16.37
2023-03-03T06:25:09.238Z,16.50
2023-03-03T06:27:37.304Z,16.62
2023-03-03T06:30:06.451Z,17.06
2023-03-03T06:32:34.658Z,18.73
2023-03-03T06:35:02.802Z,18.87
2023-03-03T06:37:30.982Z,18.58
2023-03-03T06:39:59.160Z,17.86
2023-03-03T06:42:27.298Z,17.24
2023-03-03T06:44:55.247Z,17.33
2023-03-03T06:47:23.542Z,17.48
2023-03-03T06:49:51.597Z,17.90
2023-03-03T06:52:22.249Z,17.52
2023-03-03T06:54:51.231Z,17.64
2023-03-03T06:57:26.631Z,16.51
2023-03-03T06:59:59.330Z,16.35
2023-03-03T07:02:27.371Z,16.24
2023-03-03T07:04:55.721Z,15.92
2023-03-03T07:07:25.130Z,16.45
2023-03-03T07:09:55.622Z,16.95
2023-03-03T07:12:27.435Z,17.20
2023-03-03T07:15:07.810Z,16.92
2023-03-03T07:17:40.073Z,16.55
2023-03-03T07:20:18.471Z,16.41
2023-03-03T07:22:46.555Z,16.20
2023-03-03T07:25:26.496Z,16.39
2023-03-03T07:27:56.757Z,16.01
2023-03-03T07:30:27.756Z,16.70
2023-03-03T07:32:57.620Z,17.28
2023-03-03T07:35:28.861Z,17.57
2023-03-03T07:37:57.011Z,17.54
2023-03-03T07:40:34.500Z,16.53
2023-03-03T07:43:14.712Z,17.08
2023-03-03T07:45:42.951Z,17.29
2023-03-03T07:48:24.867Z,17.51
2023-03-03T07:50:52.920Z,17.59
2023-03-03T07:53:27.712Z,17.20
2023-03-03T07:55:55.800Z,17.98
2023-03-03T07:58:36.071Z,17.86
2023-03-03T08:01:13.536Z,17.57
2023-03-03T08:03:41.563Z,16.54
2023-03-03T08:06:32.925Z,16.93
2023-03-03T08:09:10.410Z,17.28
2023-03-03T08:11:55.834Z,17.74
2023-03-03T08:14:31.492Z,17.81
2023-03-03T08:17:01.670Z,31.82
2023-03-03T08:19:30.538Z,22.55
2023-03-03T08:22:07.371Z,17.96
2023-03-03T08:24:38.047Z,19.06
2023-03-03T08:27:06.505Z,18.29
2023-03-03T08:29:34.653Z,17.44
2023-03-03T08:32:02.774Z,18.15
2023-03-03T08:34:30.867Z,18.90
2023-03-03T08:36:59.059Z,19.39
2023-03-03T08:39:27.151Z,19.29
2023-03-03T08:41:55.217Z,18.80
2023-03-03T08:44:23.329Z,19.27
2023-03-03T08:46:51.530Z,19.61
2023-03-03T08:49:19.769Z,18.99
2023-03-03T08:51:47.953Z,20.39
2023-03-03T08:54:15.958Z,21.50
2023-03-03T08:56:44.062Z,22.08
2023-03-03T08:59:12.364Z,21.80
2023-03-03T09:01:40.441Z,21.68
2023-03-03T09:04:08.621Z,20.74
2023-03-03T09:06:37.654Z,18.22
2023-03-03T09:09:05.820Z,14.81
2023-03-03T09:52:28.239Z,9.51
2023-03-03T09:55:11.706Z,9.31
2023-03-03T09:58:10.469Z,8.79
2023-03-03T10:00:39.586Z,8.11
2023-03-03T10:03:10.567Z,7.42
2023-03-03T10:06:05.353Z,7.66
2023-03-03T10:08:56.833Z,7.08
2023-03-03T10:11:36.117Z,7.13
2023-03-03T10:14:24.476Z,7.39
2023-03-03T10:17:30.237Z,7.34
2023-03-03T10:20:06.304Z,7.29
2023-03-03T10:22:36.675Z,6.37
2023-03-03T10:25:05.305Z,6.10
2023-03-03T10:27:55.672Z,6.30
2023-03-03T10:30:42.370Z,8.36
2023-03-03T10:33:53.408Z,8.58
2023-03-03T10:36:44.411Z,8.13
2023-03-03T10:40:06.030Z,8.04
2023-03-03T10:42:44.952Z,7.90
2023-03-03T10:45:46.999Z,8.32
2023-03-03T10:48:44.388Z,8.48
2023-03-03T10:51:24.287Z,8.70
2023-03-03T10:54:10.600Z,8.92
2023-03-03T10:56:52.789Z,9.29
2023-03-03T10:59:21.754Z,8.76
2023-03-03T11:01:55.873Z,8.44
2023-03-03T11:04:31.335Z,8.26
2023-03-03T11:07:08.828Z,8.13
2023-03-03T11:09:43.877Z,8.51
2023-03-03T11:12:27.156Z,8.10
2023-03-03T11:15:13.916Z,7.59
2023-03-03T11:18:15.969Z,8.14
2023-03-03T11:20:49.393Z,8.20
2023-03-03T11:23:39.691Z,7.81
2023-03-03T11:26:08.961Z,7.63
2023-03-03T11:28:53.129Z,7.50
2023-03-03T11:31:39.865Z,7.83
2023-03-03T11:34:57.858Z,7.74
2023-03-03T11:38:01.353Z,7.89
2023-03-03T11:40:45.612Z,8.19
2023-03-03T11:43:33.957Z,10.09
2023-03-03T11:46:07.871Z,8.62
2023-03-03T11:49:08.479Z,8.79
2023-03-03T11:51:54.443Z,8.03
2023-03-03T11:54:29.407Z,7.98
2023-03-03T11:57:16.569Z,7.50
2023-03-03T11:59:50.088Z,7.83
2023-03-03T12:02:28.771Z,8.11
2023-03-03T12:05:01.501Z,8.29
2023-03-03T12:07:44.755Z,8.05
2023-03-03T12:10:14.947Z,8.62
2023-03-03T12:12:44.576Z,8.84
2023-03-03T12:15:28.991Z,9.38
2023-03-03T12:17:56.917Z,8.52
2023-03-03T12:20:44.055Z,8.68
2023-03-03T12:23:19.269Z,9.08
2023-03-03T12:25:52.018Z,8.56
2023-03-03T12:28:44.269Z,8.59
2023-03-03T12:31:30.857Z,8.57
2023-03-03T12:34:03.008Z,8.04
2023-03-03T12:36:38.384Z,7.65
2023-03-03T12:39:34.732Z,7.57
2023-03-03T12:42:27.005Z,7.90
2023-03-03T12:45:00.864Z,9.16
2023-03-03T12:47:39.489Z,9.48
2023-03-03T12:50:10.653Z,9.22
2023-03-03T12:52:45.364Z,9.54
2023-03-03T12:55:41.130Z,9.05
2023-03-03T12:58:46.959Z,8.72
2023-03-03T13:01:28.625Z,8.25
2023-03-03T13:04:32.443Z,8.73
2023-03-03T13:07:14.560Z,8.23
2023-03-03T13:09:56.176Z,8.65
2023-03-03T13:12:43.079Z,8.09
2023-03-03T13:15:16.323Z,8.97
2023-03-03T13:17:54.102Z,9.43
2023-03-03T13:20:45.421Z,9.29
2023-03-03T13:23:32.356Z,10.03
2023-03-03T13:26:05.290Z,10.10
2023-03-03T13:28:59.865Z,10.19
2023-03-03T13:31:34.794Z,10.10
2023-03-03T13:34:03.295Z,10.88
2023-03-03T13:36:59.453Z,9.97
2023-03-03T13:39:30.283Z,10.09
2023-03-03T13:42:17.089Z,11.26
2023-03-03T13:44:45.918Z,11.24
2023-03-03T13:47:39.325Z,10.31
2023-03-03T13:50:17.045Z,9.87
2023-03-03T13:52:54.952Z,9.83
2023-03-03T13:55:43.913Z,10.47
2023-03-03T13:58:14.890Z,11.11
2023-03-03T14:00:52.828Z,10.47
2023-03-03T14:03:34.790Z,11.31
2023-03-03T14:06:37.894Z,10.21
2023-03-03T14:09:44.246Z,10.60
2023-03-03T14:12:30.788Z,10.41
2023-03-03T14:15:17.464Z,10.06
2023-03-03T14:17:59.974Z,10.29
2023-03-03T14:20:29.698Z,10.00
2023-03-03T14:23:08.413Z,10.80
2023-03-03T14:25:51.754Z,11.88
2023-03-03T14:28:21.840Z,11.97
2023-03-03T14:30:50.102Z,13.01
2023-03-03T14:33:20.737Z,12.86
2023-03-03T14:35:56.728Z,13.57
2023-03-03T14:38:37.701Z,13.18
2023-03-03T14:41:11.930Z,13.48
2023-03-03T14:43:41.215Z,12.92
2023-03-03T14:46:40.625Z,13.57
2023-03-03T14:49:32.003Z,13.76
2023-03-03T14:52:30.049Z,14.03
2023-03-03T14:55:05.359Z,14.05
2023-03-03T14:57:46.531Z,13.85
2023-03-03T15:00:15.117Z,14.30
2023-03-03T15:02:52.600Z,15.86
2023-03-03T15:05:25.604Z,15.40
2023-03-03T15:07:57.960Z,15.61
2023-03-03T15:10:29.116Z,13.74
2023-03-03T15:12:57.327Z,15.02
2023-03-03T15:15:25.608Z,14.03
2023-03-03T15:18:02.733Z,13.34
2023-03-03T15:20:44.438Z,14.01
2023-03-03T15:23:30.931Z,13.76
2023-03-03T15:26:10.400Z,14.29
2023-03-03T15:29:23.296Z,13.77
2023-03-03T15:32:00.656Z,14.39
2023-03-03T15:34:41.045Z,13.40
2023-03-03T15:37:12.316Z,13.04
2023-03-03T15:40:09.446Z,13.15
2023-03-03T15:42:43.180Z,13.07
2023-03-03T15:45:33.885Z,13.24
2023-03-03T15:48:04.078Z,13.82
2023-03-03T15:50:35.261Z,14.22
2023-03-03T15:53:31.383Z,14.18
2023-03-03T15:56:18.218Z,14.27
2023-03-03T15:59:14.392Z,14.09
2023-03-03T16:01:56.319Z,15.19
2023-03-03T16:04:33.309Z,14.97
2023-03-03T16:07:14.237Z,15.51
2023-03-03T16:09:56.626Z,15.94
2023-03-03T16:12:46.807Z,15.89
2023-03-03T16:15:24.078Z,14.93
2023-03-03T16:17:57.889Z,14.88
2023-03-03T16:20:26.023Z,15.14
2023-03-03T16:23:12.505Z,14.94
2023-03-03T16:25:49.555Z,15.73
2023-03-03T16:28:43.951Z,15.68
2023-03-03T16:31:36.660Z,16.34
2023-03-03T16:34:07.684Z,16.26
2023-03-03T16:37:10.774Z,16.72
2023-03-03T16:39:51.438Z,17.63
2023-03-03T16:42:26.462Z,17.88
2023-03-03T16:45:24.105Z,17.84
2023-03-03T16:47:58.164Z,17.70
2023-03-03T16:50:39.717Z,17.85
2023-03-03T16:53:27.635Z,17.94
2023-03-03T16:56:34.770Z,17.93
2023-03-03T16:59:33.866Z,18.47
2023-03-03T17:02:24.056Z,17.32
2023-03-03T17:04:59.323Z,17.96
2023-03-03T17:07:45.175Z,17.82
2023-03-03T17:10:19.292Z,18.31
2023-03-03T17:13:20.025Z,18.39
2023-03-03T17:16:10.386Z,18.40
2023-03-03T17:18:53.952Z,17.97
2023-03-03T17:21:46.397Z,18.99
2023-03-03T17:24:20.823Z,19.87
2023-03-03T17:27:20.533Z,20.80
2023-03-03T17:29:57.824Z,23.00
2023-03-03T17:32:34.177Z,24.55
2023-03-03T17:35:28.693Z,24.54
2023-03-03T17:38:12.308Z,24.13
2023-03-03T17:40:43.343Z,23.29
2023-03-03T17:43:40.012Z,24.20
2023-03-03T17:46:39.892Z,25.08
2023-03-03T17:49:29.701Z,24.81
2023-03-03T17:52:24.744Z,25.28
2023-03-03T17:55:11.778Z,25.05
2023-03-03T17:57:58.822Z,25.72
2023-03-03T18:00:42.277Z,26.95
2023-03-03T18:03:22.781Z,26.63
2023-03-03T18:06:03.274Z,25.53
2023-03-03T18:08:57.481Z,25.23
2023-03-03T18:11:58.228Z,26.91
2023-03-03T18:14:47.606Z,25.76
2023-03-03T18:17:50.301Z,25.79
2023-03-03T18:20:57.617Z,26.85
2023-03-03T18:23:42.994Z,25.69
2023-03-03T18:26:34.341Z,25.31
2023-03-03T18:29:11.050Z,24.91
2023-03-03T18:31:54.210Z,24.67
2023-03-03T18:34:22.282Z,24.66
2023-03-03T18:37:08.900Z,25.67
2023-03-03T18:39:38.222Z,26.09
2023-03-03T18:42:16.609Z,25.90
2023-03-03T18:44:44.785Z,26.32
2023-03-03T18:47:13.104Z,25.59
2023-03-03T18:49:47.441Z,25.91
2023-03-03T18:52:22.755Z,25.01
2023-03-03T18:55:12.034Z,24.67
2023-03-03T18:57:40.054Z,26.31
2023-03-03T19:00:27.536Z,26.03
2023-03-03T19:02:57.170Z,25.94
2023-03-03T19:05:28.910Z,25.63
2023-03-03T19:07:59.290Z,25.75
2023-03-03T19:10:49.739Z,25.90
2023-03-03T19:13:32.983Z,25.48
2023-03-03T19:16:05.135Z,25.52
2023-03-03T19:18:56.307Z,24.72
2023-03-03T19:21:29.641Z,24.42
2023-03-03T19:24:06.227Z,24.67
2023-03-03T19:26:44.666Z,23.84
2023-03-03T19:29:54.595Z,23.08
2023-03-03T19:32:53.562Z,23.81
2023-03-03T19:35:25.709Z,24.41
2023-03-03T19:38:08.735Z,24.24
2023-03-03T19:41:00.687Z,24.13
2023-03-03T19:43:41.280Z,25.03
2023-03-03T19:46:55.769Z,25.36
2023-03-03T19:49:57.173Z,24.17
2023-03-03T19:52:50.613Z,24.20
2023-03-03T19:55:39.933Z,25.18
2023-03-03T19:58:33.019Z,24.17
2023-03-03T20:01:08.551Z,24.29
2023-03-03T20:03:42.766Z,23.83
2023-03-03T20:06:17.318Z,26.19
2023-03-03T20:09:08.930Z,25.72
2023-03-03T20:11:48.848Z,23.70
2023-03-03T20:14:46.190Z,22.47
2023-03-03T20:17:45.407Z,22.15
2023-03-03T20:20:32.665Z,22.36
2023-03-03T20:23:23.753Z,22.82
2023-03-03T20:26:16.063Z,22.50
2023-03-03T20:28:59.480Z,23.08
2023-03-03T20:31:44.120Z,22.98
2023-03-03T20:34:27.681Z,24.12
2023-03-03T20:37:06.551Z,24.62
2023-03-03T20:39:46.552Z,24.79
2023-03-03T20:42:33.425Z,24.65
2023-03-03T20:45:11.013Z,24.80
2023-03-03T20:48:13.121Z,24.85
2023-03-03T20:51:06.251Z,24.17
2023-03-03T20:53:46.277Z,24.13
2023-03-03T20:56:44.023Z,24.28
2023-03-03T20:59:44.569Z,23.98
2023-03-03T21:02:25.395Z,23.36
2023-03-03T21:05:17.293Z,23.18
2023-03-03T21:07:55.587Z,22.96
2023-03-03T21:10:28.353Z,23.23
2023-03-03T21:12:58.177Z,23.73
2023-03-03T21:15:34.088Z,23.36
2023-03-03T21:18:19.164Z,23.76
2023-03-03T21:20:47.106Z,23.49
2023-03-03T21:23:16.811Z,23.41
2023-03-03T21:25:52.622Z,23.25
2023-03-03T21:28:31.935Z,24.02
2023-03-03T21:31:06.083Z,21.86
2023-03-03T21:33:50.697Z,22.14
2023-03-03T21:36:31.969Z,21.52
2023-03-03T21:39:02.322Z,21.81
2023-03-03T21:41:50.253Z,22.27
2023-03-03T21:44:39.800Z,23.09
2023-03-03T21:47:09.355Z,22.70
2023-03-03T21:49:43.381Z,23.66
2023-03-03T21:52:12.422Z,23.34
2023-03-03T21:54:40.768Z,22.80
2023-03-03T21:57:09.309Z,23.28
2023-03-03T21:59:37.444Z,22.79
2023-03-03T22:02:06.058Z,24.39
2023-03-03T22:04:34.600Z,23.77
2023-03-03T22:07:02.602Z,23.33
2023-03-03T22:09:30.496Z,22.96
2023-03-03T22:11:58.603Z,23.42
2023-03-03T22:14:26.721Z,23.44
2023-03-03T22:16:54.661Z,22.97
2023-03-03T22:19:22.880Z,22.91
2023-03-03T22:21:50.927Z,23.40
2023-03-03T22:24:19.231Z,22.18
2023-03-03T22:26:47.411Z,22.94
2023-03-03T22:29:17.254Z,23.34
2023-03-03T22:31:45.347Z,22.50
2023-03-03T22:34:13.528Z,22.52
2023-03-03T22:36:41.665Z,22.18
2023-03-03T22:39:10.540Z,22.97
2023-03-03T22:41:38.552Z,23.22
2023-03-03T22:44:06.560Z,22.16
2023-03-03T22:46:34.853Z,22.08
2023-03-03T22:49:02.837Z,22.31
2023-03-03T22:51:30.821Z,23.00
2023-03-03T22:53:58.966Z,22.22
2023-03-03T22:56:27.134Z,21.18
2023-03-03T22:58:55.193Z,20.89
2023-03-03T23:01:23.378Z,20.85
2023-03-03T23:03:51.648Z,20.37
2023-03-03T23:06:19.770Z,19.97
2023-03-03T23:08:48.001Z,19.87
2023-03-03T23:11:16.072Z,20.21
2023-03-03T23:13:44.148Z,20.64
2023-03-03T23:16:12.377Z,20.15
2023-03-03T23:18:40.577Z,19.68
2023-03-03T23:21:08.510Z,20.12
2023-03-03T23:23:36.576Z,19.60
2023-03-03T23:26:04.796Z,19.90
2023-03-03T23:28:32.978Z,19.59
2023-03-03T23:31:01.072Z,19.89
2023-03-03T23:33:29.193Z,19.84
2023-03-03T23:35:57.181Z,20.07
2023-03-03T23:38:25.157Z,20.26
2023-03-03T23:40:53.434Z,20.85
2023-03-03T23:43:21.536Z,20.89
2023-03-03T23:45:49.468Z,21.39
2023-03-03T23:48:17.574Z,21.30
2023-03-03T23:50:45.568Z,20.70
2023-03-03T23:53:13.630Z,20.41
2023-03-03T23:55:41.653Z,20.60
2023-03-03T23:58:09.771Z,20.22
